Gold Hill, Nevada
Current Conditions -  °F | °C
As of 10:55 AM on Thursday 23 Oct 2014 (Local Time) from KRNO Reporting Station
Overcast Overcast  
Wind Chill: 62°   Ceiling: 23000
Heat Index: 62°   Visibility: 10mi
Dew Point: 30°   Wind: 3mph
Humidity: 30%   Direction: 70°ENE
Pressure: 30.12"   Gusts: NA
Location:  39.4994°N, 119.507°W
Report Text: KRNO 231755Z 07003KT 10SM FEW140 BKN230 OVC280 17/M01 A3012 RMK AO2 SLP163 ACSL DSNT ALQDS T01671011 10167 20067 50001
Loading
Personal Weather Stations






























Interactive Weather Map
Tropical Storm Tracking
New forecast layout! Learn more

10-Day Weather Forecast

Advertisements
Track Severe Weather on mobile